Terminal Aerodrome Forecast
Issued by NWS

Home | Current Version | Previous Version | Graphics & Text | Print | Product List | Glossary On
Versions: 1 2 3 4 5 6 7 8 9 10 11 12 13 14 15 16 17 18 19 20 21 22 23 24 25 26 27 28 29 30 31 32 33 34 35 36 37 38 39 40 41 42 43 44 45 46 47 48 49 50
000
FTUS43 KLOT 011600 AAB
TAFGYY
TAF AMD
KGYY 011606Z 0116/0212 06008KT 1SM -SN OVC004
     FM011800 05012G18KT 3/4SM -SN BLSN OVC004
     FM012200 04022G34KT 1/2SM SN BLSN OVC004
      TEMPO 0122/0202 1/4SM SN BLSN
     FM020400 02020G30KT 3/4SM -SN BLSN OVC005
     FM020800 35016G25KT 3SM BLSN OVC015=

USA.gov is the U.S. government's official web portal to all federal, state and local government web resources and services.